sensor_id;sensor_type;location;lat;lon;timestamp;temperature;humidity
66184;DHT22;52989;48.796;9.806;2023-06-22T00:01:47;19.70;99.90
66184;DHT22;52989;48.796;9.806;2023-06-22T00:04:13;19.70;99.90
66184;DHT22;52989;48.796;9.806;2023-06-22T00:06:38;19.70;99.90
66184;DHT22;52989;48.796;9.806;2023-06-22T00:09:04;19.70;99.90
66184;DHT22;52989;48.796;9.806;2023-06-22T00:11:29;19.70;99.90
66184;DHT22;52989;48.796;9.806;2023-06-22T00:13:56;19.50;99.90
66184;DHT22;52989;48.796;9.806;2023-06-22T00:16:22;19.60;99.90
66184;DHT22;52989;48.796;9.806;2023-06-22T00:18:47;19.60;99.90
66184;DHT22;52989;48.796;9.806;2023-06-22T00:21:14;19.50;99.90
66184;DHT22;52989;48.796;9.806;2023-06-22T00:23:39;19.30;99.90
66184;DHT22;52989;48.796;9.806;2023-06-22T00:26:05;19.40;99.90
66184;DHT22;52989;48.796;9.806;2023-06-22T00:28:30;19.30;99.90
66184;DHT22;52989;48.796;9.806;2023-06-22T00:30:55;19.30;99.90
66184;DHT22;52989;48.796;9.806;2023-06-22T00:33:21;19.20;99.90
66184;DHT22;52989;48.796;9.806;2023-06-22T00:35:46;19.20;99.90
66184;DHT22;52989;48.796;9.806;2023-06-22T00:38:12;19.30;99.90
66184;DHT22;52989;48.796;9.806;2023-06-22T00:40:37;19.40;99.90
66184;DHT22;52989;48.796;9.806;2023-06-22T00:43:03;19.30;99.90
66184;DHT22;52989;48.796;9.806;2023-06-22T00:45:30;19.40;99.90
66184;DHT22;52989;48.796;9.806;2023-06-22T00:47:56;19.20;99.90
66184;DHT22;52989;48.796;9.806;2023-06-22T00:50:22;19.20;99.90
66184;DHT22;52989;48.796;9.806;2023-06-22T00:52:51;19.10;99.90
66184;DHT22;52989;48.796;9.806;2023-06-22T00:55:18;19.10;99.90
66184;DHT22;52989;48.796;9.806;2023-06-22T00:57:46;19.10;99.90
66184;DHT22;52989;48.796;9.806;2023-06-22T01:00:13;19.10;99.90
66184;DHT22;52989;48.796;9.806;2023-06-22T01:02:40;19.10;99.90
66184;DHT22;52989;48.796;9.806;2023-06-22T01:05:06;19.10;99.90
66184;DHT22;52989;48.796;9.806;2023-06-22T01:07:35;19.00;99.90
66184;DHT22;52989;48.796;9.806;2023-06-22T01:10:10;19.00;99.90
66184;DHT22;52989;48.796;9.806;2023-06-22T01:12:44;19.00;99.90
66184;DHT22;52989;48.796;9.806;2023-06-22T01:15:11;18.90;99.90
66184;DHT22;52989;48.796;9.806;2023-06-22T01:17:39;18.90;99.90
66184;DHT22;52989;48.796;9.806;2023-06-22T01:20:05;19.00;99.90
66184;DHT22;52989;48.796;9.806;2023-06-22T01:22:33;19.10;99.90
66184;DHT22;52989;48.796;9.806;2023-06-22T01:25:10;19.10;99.90
66184;DHT22;52989;48.796;9.806;2023-06-22T01:30:21;19.10;99.90
66184;DHT22;52989;48.796;9.806;2023-06-22T01:32:47;19.00;99.90
66184;DHT22;52989;48.796;9.806;2023-06-22T01:35:13;19.00;99.90
66184;DHT22;52989;48.796;9.806;2023-06-22T01:37:39;18.80;99.90
66184;DHT22;52989;48.796;9.806;2023-06-22T01:40:05;18.80;99.90
66184;DHT22;52989;48.796;9.806;2023-06-22T01:42:31;18.90;99.90
66184;DHT22;52989;48.796;9.806;2023-06-22T01:44:57;18.80;99.90
66184;DHT22;52989;48.796;9.806;2023-06-22T01:47:23;18.80;99.90
66184;DHT22;52989;48.796;9.806;2023-06-22T01:49:49;18.80;99.90
66184;DHT22;52989;48.796;9.806;2023-06-22T01:52:17;18.70;99.90
66184;DHT22;52989;48.796;9.806;2023-06-22T01:54:44;18.60;99.90
66184;DHT22;52989;48.796;9.806;2023-06-22T01:57:09;18.50;99.90
66184;DHT22;52989;48.796;9.806;2023-06-22T02:02:09;18.60;99.90
66184;DHT22;52989;48.796;9.806;2023-06-22T02:04:46;18.50;99.90
66184;DHT22;52989;48.796;9.806;2023-06-22T02:07:13;18.40;99.90
66184;DHT22;52989;48.796;9.806;2023-06-22T02:09:42;18.40;99.90
66184;DHT22;52989;48.796;9.806;2023-06-22T02:12:09;18.40;99.90
66184;DHT22;52989;48.796;9.806;2023-06-22T02:14:35;18.30;99.90
66184;DHT22;52989;48.796;9.806;2023-06-22T02:17:01;18.30;99.90
66184;DHT22;52989;48.796;9.806;2023-06-22T02:19:27;18.40;99.90
66184;DHT22;52989;48.796;9.806;2023-06-22T02:21:56;18.40;99.90
66184;DHT22;52989;48.796;9.806;2023-06-22T02:24:21;18.50;99.90
66184;DHT22;52989;48.796;9.806;2023-06-22T02:26:48;18.50;99.90
66184;DHT22;52989;48.796;9.806;2023-06-22T02:29:14;18.50;99.90
66184;DHT22;52989;48.796;9.806;2023-06-22T02:31:39;18.50;99.90
66184;DHT22;52989;48.796;9.806;2023-06-22T02:34:05;18.40;99.90
66184;DHT22;52989;48.796;9.806;2023-06-22T02:36:31;18.40;99.90
66184;DHT22;52989;48.796;9.806;2023-06-22T02:39:00;18.30;99.90
66184;DHT22;52989;48.796;9.806;2023-06-22T02:41:27;18.20;99.90
66184;DHT22;52989;48.796;9.806;2023-06-22T02:43:52;18.10;99.90
66184;DHT22;52989;48.796;9.806;2023-06-22T02:46:17;18.00;99.90
66184;DHT22;52989;48.796;9.806;2023-06-22T02:48:43;18.00;99.90
66184;DHT22;52989;48.796;9.806;2023-06-22T02:51:08;18.00;99.90
66184;DHT22;52989;48.796;9.806;2023-06-22T02:53:34;17.90;99.90
66184;DHT22;52989;48.796;9.806;2023-06-22T02:56:03;18.00;99.90
66184;DHT22;52989;48.796;9.806;2023-06-22T02:58:31;18.00;99.90
66184;DHT22;52989;48.796;9.806;2023-06-22T03:01:04;18.00;99.90
66184;DHT22;52989;48.796;9.806;2023-06-22T03:03:30;18.10;99.90
66184;DHT22;52989;48.796;9.806;2023-06-22T03:05:55;18.00;99.90
66184;DHT22;52989;48.796;9.806;2023-06-22T03:08:21;17.90;99.90
66184;DHT22;52989;48.796;9.806;2023-06-22T03:10:46;17.90;99.90
66184;DHT22;52989;48.796;9.806;2023-06-22T03:13:12;17.90;99.90
66184;DHT22;52989;48.796;9.806;2023-06-22T03:15:37;17.90;99.90
66184;DHT22;52989;48.796;9.806;2023-06-22T03:18:02;17.90;99.90
66184;DHT22;52989;48.796;9.806;2023-06-22T03:20:28;17.90;99.90
66184;DHT22;52989;48.796;9.806;2023-06-22T03:22:58;17.90;99.90
66184;DHT22;52989;48.796;9.806;2023-06-22T03:25:24;17.90;99.90
66184;DHT22;52989;48.796;9.806;2023-06-22T03:27:49;17.90;99.90
66184;DHT22;52989;48.796;9.806;2023-06-22T03:30:15;18.00;99.90
66184;DHT22;52989;48.796;9.806;2023-06-22T03:32:40;18.10;99.90
66184;DHT22;52989;48.796;9.806;2023-06-22T03:35:06;18.10;99.90
66184;DHT22;52989;48.796;9.806;2023-06-22T03:37:32;18.20;99.90
66184;DHT22;52989;48.796;9.806;2023-06-22T03:39:57;18.30;99.90
66184;DHT22;52989;48.796;9.806;2023-06-22T03:42:23;18.30;99.90
66184;DHT22;52989;48.796;9.806;2023-06-22T03:44:48;18.40;99.90
66184;DHT22;52989;48.796;9.806;2023-06-22T03:47:13;18.40;99.90
66184;DHT22;52989;48.796;9.806;2023-06-22T03:49:39;18.40;99.90
66184;DHT22;52989;48.796;9.806;2023-06-22T03:52:05;18.40;99.90
66184;DHT22;52989;48.796;9.806;2023-06-22T03:54:30;18.50;99.90
66184;DHT22;52989;48.796;9.806;2023-06-22T03:56:56;18.40;99.90
66184;DHT22;52989;48.796;9.806;2023-06-22T03:59:22;18.40;99.90
66184;DHT22;52989;48.796;9.806;2023-06-22T04:01:47;18.50;99.90
66184;DHT22;52989;48.796;9.806;2023-06-22T04:04:13;18.50;99.90
66184;DHT22;52989;48.796;9.806;2023-06-22T04:06:38;18.50;99.90
66184;DHT22;52989;48.796;9.806;2023-06-22T04:09:05;18.50;99.90
66184;DHT22;52989;48.796;9.806;2023-06-22T04:11:30;18.50;99.90
66184;DHT22;52989;48.796;9.806;2023-06-22T04:13:56;18.60;99.90
66184;DHT22;52989;48.796;9.806;2023-06-22T04:16:21;18.60;99.90
66184;DHT22;52989;48.796;9.806;2023-06-22T04:18:47;18.60;99.90
66184;DHT22;52989;48.796;9.806;2023-06-22T04:21:13;18.60;99.90
66184;DHT22;52989;48.796;9.806;2023-06-22T04:23:38;18.60;99.90
66184;DHT22;52989;48.796;9.806;2023-06-22T04:26:04;18.60;99.90
66184;DHT22;52989;48.796;9.806;2023-06-22T04:28:29;18.60;99.90
66184;DHT22;52989;48.796;9.806;2023-06-22T04:30:55;18.60;99.90
66184;DHT22;52989;48.796;9.806;2023-06-22T04:33:24;18.50;99.90
66184;DHT22;52989;48.796;9.806;2023-06-22T04:35:50;18.40;99.90
66184;DHT22;52989;48.796;9.806;2023-06-22T04:38:15;18.50;99.90
66184;DHT22;52989;48.796;9.806;2023-06-22T04:40:41;18.60;99.90
66184;DHT22;52989;48.796;9.806;2023-06-22T04:43:07;18.70;99.90
66184;DHT22;52989;48.796;9.806;2023-06-22T04:45:32;18.80;99.90
66184;DHT22;52989;48.796;9.806;2023-06-22T04:47:58;18.90;99.90
66184;DHT22;52989;48.796;9.806;2023-06-22T04:50:23;19.00;99.90
66184;DHT22;52989;48.796;9.806;2023-06-22T04:52:49;19.10;99.90
66184;DHT22;52989;48.796;9.806;2023-06-22T04:55:15;19.20;99.90
66184;DHT22;52989;48.796;9.806;2023-06-22T04:57:45;19.30;99.90
66184;DHT22;52989;48.796;9.806;2023-06-22T05:00:17;19.30;99.90
66184;DHT22;52989;48.796;9.806;2023-06-22T05:02:44;19.30;99.90
66184;DHT22;52989;48.796;9.806;2023-06-22T05:05:10;19.40;99.90
66184;DHT22;52989;48.796;9.806;2023-06-22T05:07:45;19.50;99.90
66184;DHT22;52989;48.796;9.806;2023-06-22T05:10:13;19.70;99.90
66184;DHT22;52989;48.796;9.806;2023-06-22T05:12:39;19.70;99.90
66184;DHT22;52989;48.796;9.806;2023-06-22T05:15:05;19.70;99.90
66184;DHT22;52989;48.796;9.806;2023-06-22T05:17:31;19.80;99.90
66184;DHT22;52989;48.796;9.806;2023-06-22T05:19:57;19.90;99.90
66184;DHT22;52989;48.796;9.806;2023-06-22T05:22:22;19.90;99.90
66184;DHT22;52989;48.796;9.806;2023-06-22T05:24:48;20.00;99.90
66184;DHT22;52989;48.796;9.806;2023-06-22T05:27:13;20.00;99.90
66184;DHT22;52989;48.796;9.806;2023-06-22T05:29:39;20.00;99.90
66184;DHT22;52989;48.796;9.806;2023-06-22T05:32:05;20.10;99.90
66184;DHT22;52989;48.796;9.806;2023-06-22T05:34:30;20.30;99.90
66184;DHT22;52989;48.796;9.806;2023-06-22T05:36:56;20.40;99.90
66184;DHT22;52989;48.796;9.806;2023-06-22T05:39:24;20.60;99.90
66184;DHT22;52989;48.796;9.806;2023-06-22T05:41:49;20.80;99.90
66184;DHT22;52989;48.796;9.806;2023-06-22T05:44:14;20.70;99.90
66184;DHT22;52989;48.796;9.806;2023-06-22T05:46:40;20.80;99.90
66184;DHT22;52989;48.796;9.806;2023-06-22T05:49:09;20.80;99.90
66184;DHT22;52989;48.796;9.806;2023-06-22T05:51:35;21.00;99.90
66184;DHT22;52989;48.796;9.806;2023-06-22T05:54:00;21.20;99.90
66184;DHT22;52989;48.796;9.806;2023-06-22T05:56:26;21.20;99.90
66184;DHT22;52989;48.796;9.806;2023-06-22T05:58:51;21.30;99.90
66184;DHT22;52989;48.796;9.806;2023-06-22T06:01:17;21.30;99.90
66184;DHT22;52989;48.796;9.806;2023-06-22T06:03:42;21.40;99.90
66184;DHT22;52989;48.796;9.806;2023-06-22T06:06:08;21.40;99.90
66184;DHT22;52989;48.796;9.806;2023-06-22T06:08:33;21.50;99.90
66184;DHT22;52989;48.796;9.806;2023-06-22T06:10:58;21.60;99.90
66184;DHT22;52989;48.796;9.806;2023-06-22T06:13:24;21.70;99.90
66184;DHT22;52989;48.796;9.806;2023-06-22T06:15:49;21.70;99.90
66184;DHT22;52989;48.796;9.806;2023-06-22T06:18:18;21.80;99.90
66184;DHT22;52989;48.796;9.806;2023-06-22T06:20:43;21.80;99.90
66184;DHT22;52989;48.796;9.806;2023-06-22T06:23:08;21.90;99.90
66184;DHT22;52989;48.796;9.806;2023-06-22T06:25:34;22.00;99.90
66184;DHT22;52989;48.796;9.806;2023-06-22T06:28:00;22.10;99.90
66184;DHT22;52989;48.796;9.806;2023-06-22T06:30:25;22.20;99.90
66184;DHT22;52989;48.796;9.806;2023-06-22T06:32:50;22.30;99.90
66184;DHT22;52989;48.796;9.806;2023-06-22T06:35:16;22.30;99.90
66184;DHT22;52989;48.796;9.806;2023-06-22T06:37:42;22.40;99.90
66184;DHT22;52989;48.796;9.806;2023-06-22T06:40:09;22.50;99.90
66184;DHT22;52989;48.796;9.806;2023-06-22T06:42:45;22.60;99.90
66184;DHT22;52989;48.796;9.806;2023-06-22T06:45:11;22.70;99.90
66184;DHT22;52989;48.796;9.806;2023-06-22T06:47:37;22.70;99.90
66184;DHT22;52989;48.796;9.806;2023-06-22T06:50:04;22.90;99.30
66184;DHT22;52989;48.796;9.806;2023-06-22T06:52:29;22.90;99.70
66184;DHT22;52989;48.796;9.806;2023-06-22T06:54:55;23.00;99.10
66184;DHT22;52989;48.796;9.806;2023-06-22T06:57:20;23.20;98.60
66184;DHT22;52989;48.796;9.806;2023-06-22T06:59:46;23.30;98.20
66184;DHT22;52989;48.796;9.806;2023-06-22T07:02:11;23.40;97.80
66184;DHT22;52989;48.796;9.806;2023-06-22T07:04:37;23.50;97.50
66184;DHT22;52989;48.796;9.806;2023-06-22T07:07:02;23.40;98.50
66184;DHT22;52989;48.796;9.806;2023-06-22T07:09:28;23.30;99.20
66184;DHT22;52989;48.796;9.806;2023-06-22T07:11:54;23.40;99.10
66184;DHT22;52989;48.796;9.806;2023-06-22T07:14:19;23.60;97.10
66184;DHT22;52989;48.796;9.806;2023-06-22T07:16:45;23.80;95.60
66184;DHT22;52989;48.796;9.806;2023-06-22T07:19:13;24.00;95.10
66184;DHT22;52989;48.796;9.806;2023-06-22T07:21:38;24.10;94.90
66184;DHT22;52989;48.796;9.806;2023-06-22T07:24:05;24.20;95.00
66184;DHT22;52989;48.796;9.806;2023-06-22T07:26:31;24.20;95.10
66184;DHT22;52989;48.796;9.806;2023-06-22T07:28:57;24.10;94.70
66184;DHT22;52989;48.796;9.806;2023-06-22T07:31:23;24.20;96.00
66184;DHT22;52989;48.796;9.806;2023-06-22T07:33:49;24.20;96.50
66184;DHT22;52989;48.796;9.806;2023-06-22T07:36:14;24.40;95.50
66184;DHT22;52989;48.796;9.806;2023-06-22T07:38:40;24.60;93.20
66184;DHT22;52989;48.796;9.806;2023-06-22T07:41:05;24.80;93.00
66184;DHT22;52989;48.796;9.806;2023-06-22T07:43:31;25.00;92.40
66184;DHT22;52989;48.796;9.806;2023-06-22T07:45:58;24.90;94.40
66184;DHT22;52989;48.796;9.806;2023-06-22T07:48:23;24.70;94.70
66184;DHT22;52989;48.796;9.806;2023-06-22T07:50:49;24.90;93.10
66184;DHT22;52989;48.796;9.806;2023-06-22T07:53:14;24.90;93.90
66184;DHT22;52989;48.796;9.806;2023-06-22T07:55:40;25.10;91.80
66184;DHT22;52989;48.796;9.806;2023-06-22T07:58:05;25.20;92.10
66184;DHT22;52989;48.796;9.806;2023-06-22T08:00:31;25.50;91.80
66184;DHT22;52989;48.796;9.806;2023-06-22T08:02:58;25.50;92.40
66184;DHT22;52989;48.796;9.806;2023-06-22T08:05:24;25.60;92.10
66184;DHT22;52989;48.796;9.806;2023-06-22T08:07:49;25.80;90.70
66184;DHT22;52989;48.796;9.806;2023-06-22T08:10:15;25.70;92.00
66184;DHT22;52989;48.796;9.806;2023-06-22T08:12:40;25.70;91.80
66184;DHT22;52989;48.796;9.806;2023-06-22T08:15:06;26.00;91.30
66184;DHT22;52989;48.796;9.806;2023-06-22T08:17:33;26.10;91.10
66184;DHT22;52989;48.796;9.806;2023-06-22T08:20:00;26.00;91.30
66184;DHT22;52989;48.796;9.806;2023-06-22T08:22:26;26.10;90.70
66184;DHT22;52989;48.796;9.806;2023-06-22T08:24:51;26.30;91.20
66184;DHT22;52989;48.796;9.806;2023-06-22T08:27:17;26.50;89.60
66184;DHT22;52989;48.796;9.806;2023-06-22T08:29:46;26.60;90.40
66184;DHT22;52989;48.796;9.806;2023-06-22T08:32:12;26.60;90.10
66184;DHT22;52989;48.796;9.806;2023-06-22T08:34:37;26.70;89.10
66184;DHT22;52989;48.796;9.806;2023-06-22T08:37:09;26.80;89.30
66184;DHT22;52989;48.796;9.806;2023-06-22T08:39:35;26.70;91.80
66184;DHT22;52989;48.796;9.806;2023-06-22T08:42:00;26.80;90.10
66184;DHT22;52989;48.796;9.806;2023-06-22T08:44:26;26.90;90.60
66184;DHT22;52989;48.796;9.806;2023-06-22T08:46:51;26.90;90.10
66184;DHT22;52989;48.796;9.806;2023-06-22T08:49:17;27.20;88.80
66184;DHT22;52989;48.796;9.806;2023-06-22T08:51:42;27.20;88.50
66184;DHT22;52989;48.796;9.806;2023-06-22T08:54:09;27.30;89.20
66184;DHT22;52989;48.796;9.806;2023-06-22T08:56:35;27.40;88.00
66184;DHT22;52989;48.796;9.806;2023-06-22T08:59:01;27.30;86.60
66184;DHT22;52989;48.796;9.806;2023-06-22T09:01:26;27.60;85.80
66184;DHT22;52989;48.796;9.806;2023-06-22T09:03:51;27.80;87.30
66184;DHT22;52989;48.796;9.806;2023-06-22T09:06:21;27.90;85.70
66184;DHT22;52989;48.796;9.806;2023-06-22T09:08:47;28.00;86.40
66184;DHT22;52989;48.796;9.806;2023-06-22T09:11:13;28.00;86.10
66184;DHT22;52989;48.796;9.806;2023-06-22T09:13:39;28.10;83.90
66184;DHT22;52989;48.796;9.806;2023-06-22T09:16:04;28.40;83.30
66184;DHT22;52989;48.796;9.806;2023-06-22T09:18:30;28.60;82.00
66184;DHT22;52989;48.796;9.806;2023-06-22T09:20:55;28.50;84.40
66184;DHT22;52989;48.796;9.806;2023-06-22T09:23:21;28.40;84.60
66184;DHT22;52989;48.796;9.806;2023-06-22T09:25:46;28.30;83.90
66184;DHT22;52989;48.796;9.806;2023-06-22T09:28:13;28.50;81.60
66184;DHT22;52989;48.796;9.806;2023-06-22T09:30:39;28.40;81.90
66184;DHT22;52989;48.796;9.806;2023-06-22T09:33:04;28.40;83.80
66184;DHT22;52989;48.796;9.806;2023-06-22T09:35:31;28.60;80.30
66184;DHT22;52989;48.796;9.806;2023-06-22T09:37:57;28.70;79.30
66184;DHT22;52989;48.796;9.806;2023-06-22T09:40:22;28.70;81.00
66184;DHT22;52989;48.796;9.806;2023-06-22T09:42:47;28.40;82.40
66184;DHT22;52989;48.796;9.806;2023-06-22T09:45:13;28.40;82.60
66184;DHT22;52989;48.796;9.806;2023-06-22T09:47:38;28.60;81.20
66184;DHT22;52989;48.796;9.806;2023-06-22T09:50:04;28.80;80.90
66184;DHT22;52989;48.796;9.806;2023-06-22T09:52:30;28.90;82.50
66184;DHT22;52989;48.796;9.806;2023-06-22T09:54:56;28.70;82.30
66184;DHT22;52989;48.796;9.806;2023-06-22T09:57:21;28.60;83.10
66184;DHT22;52989;48.796;9.806;2023-06-22T09:59:46;28.50;84.70
66184;DHT22;52989;48.796;9.806;2023-06-22T10:02:12;28.60;84.20
66184;DHT22;52989;48.796;9.806;2023-06-22T10:04:38;28.60;84.70
66184;DHT22;52989;48.796;9.806;2023-06-22T10:07:04;28.80;81.70
66184;DHT22;52989;48.796;9.806;2023-06-22T10:09:30;29.10;82.40
66184;DHT22;52989;48.796;9.806;2023-06-22T10:11:55;29.20;81.90
66184;DHT22;52989;48.796;9.806;2023-06-22T10:14:21;29.30;80.80
66184;DHT22;52989;48.796;9.806;2023-06-22T10:16:47;29.30;80.20
66184;DHT22;52989;48.796;9.806;2023-06-22T10:19:13;29.50;82.60
66184;DHT22;52989;48.796;9.806;2023-06-22T10:21:38;29.40;83.00
66184;DHT22;52989;48.796;9.806;2023-06-22T10:24:04;29.40;80.20
66184;DHT22;52989;48.796;9.806;2023-06-22T10:26:32;29.40;79.60
66184;DHT22;52989;48.796;9.806;2023-06-22T10:28:57;29.40;81.60
66184;DHT22;52989;48.796;9.806;2023-06-22T10:31:22;29.20;83.40
66184;DHT22;52989;48.796;9.806;2023-06-22T10:33:48;29.10;83.70
66184;DHT22;52989;48.796;9.806;2023-06-22T10:36:14;29.40;82.60
66184;DHT22;52989;48.796;9.806;2023-06-22T10:38:40;29.90;79.80
66184;DHT22;52989;48.796;9.806;2023-06-22T10:41:05;30.10;77.80
66184;DHT22;52989;48.796;9.806;2023-06-22T10:43:31;30.10;81.30
66184;DHT22;52989;48.796;9.806;2023-06-22T10:45:56;30.30;78.70
66184;DHT22;52989;48.796;9.806;2023-06-22T10:48:22;30.50;80.10
66184;DHT22;52989;48.796;9.806;2023-06-22T10:50:47;30.60;78.40
66184;DHT22;52989;48.796;9.806;2023-06-22T10:53:13;30.10;82.70
66184;DHT22;52989;48.796;9.806;2023-06-22T10:55:38;30.00;85.40
66184;DHT22;52989;48.796;9.806;2023-06-22T10:58:04;30.30;83.10
66184;DHT22;52989;48.796;9.806;2023-06-22T11:00:29;30.00;78.00
66184;DHT22;52989;48.796;9.806;2023-06-22T11:02:56;30.30;77.80
66184;DHT22;52989;48.796;9.806;2023-06-22T11:05:21;30.50;79.10
66184;DHT22;52989;48.796;9.806;2023-06-22T11:07:47;30.50;81.40
66184;DHT22;52989;48.796;9.806;2023-06-22T11:10:14;30.50;77.60
66184;DHT22;52989;48.796;9.806;2023-06-22T11:12:40;30.20;78.10
66184;DHT22;52989;48.796;9.806;2023-06-22T11:15:06;30.30;77.00
66184;DHT22;52989;48.796;9.806;2023-06-22T11:17:31;30.50;76.60
66184;DHT22;52989;48.796;9.806;2023-06-22T11:19:57;30.30;77.90
66184;DHT22;52989;48.796;9.806;2023-06-22T11:22:22;30.30;80.50
66184;DHT22;52989;48.796;9.806;2023-06-22T11:24:48;30.30;78.40
66184;DHT22;52989;48.796;9.806;2023-06-22T11:27:13;30.40;80.10
66184;DHT22;52989;48.796;9.806;2023-06-22T11:29:39;30.20;80.80
66184;DHT22;52989;48.796;9.806;2023-06-22T11:32:05;30.30;81.70
66184;DHT22;52989;48.796;9.806;2023-06-22T11:34:31;30.70;79.20
66184;DHT22;52989;48.796;9.806;2023-06-22T11:36:57;31.00;77.60
66184;DHT22;52989;48.796;9.806;2023-06-22T11:39:22;30.30;82.20
66184;DHT22;52989;48.796;9.806;2023-06-22T11:41:48;29.70;85.20
66184;DHT22;52989;48.796;9.806;2023-06-22T11:44:13;29.90;80.00
66184;DHT22;52989;48.796;9.806;2023-06-22T11:46:39;30.40;79.50
66184;DHT22;52989;48.796;9.806;2023-06-22T11:49:05;30.80;78.40
66184;DHT22;52989;48.796;9.806;2023-06-22T11:51:30;31.10;74.20
66184;DHT22;52989;48.796;9.806;2023-06-22T11:53:57;31.10;77.80
66184;DHT22;52989;48.796;9.806;2023-06-22T11:56:23;30.40;80.30
66184;DHT22;52989;48.796;9.806;2023-06-22T11:58:48;30.70;76.00
66184;DHT22;52989;48.796;9.806;2023-06-22T12:01:13;31.10;78.50
66184;DHT22;52989;48.796;9.806;2023-06-22T12:03:40;30.70;76.50
66184;DHT22;52989;48.796;9.806;2023-06-22T12:06:06;30.90;76.50
66184;DHT22;52989;48.796;9.806;2023-06-22T12:08:31;30.80;78.20
66184;DHT22;52989;48.796;9.806;2023-06-22T12:10:57;30.50;76.70
66184;DHT22;52989;48.796;9.806;2023-06-22T12:13:22;30.30;75.80
66184;DHT22;52989;48.796;9.806;2023-06-22T12:15:48;30.50;76.00
66184;DHT22;52989;48.796;9.806;2023-06-22T12:18:13;30.70;77.10
66184;DHT22;52989;48.796;9.806;2023-06-22T12:20:42;30.30;80.40
66184;DHT22;52989;48.796;9.806;2023-06-22T12:23:07;30.10;81.50
66184;DHT22;52989;48.796;9.806;2023-06-22T12:25:33;30.30;79.60
66184;DHT22;52989;48.796;9.806;2023-06-22T12:27:58;30.30;80.10
66184;DHT22;52989;48.796;9.806;2023-06-22T12:30:24;30.10;82.00
66184;DHT22;52989;48.796;9.806;2023-06-22T12:32:49;30.40;79.00
66184;DHT22;52989;48.796;9.806;2023-06-22T12:35:16;31.10;76.30
66184;DHT22;52989;48.796;9.806;2023-06-22T12:37:42;31.40;75.50
66184;DHT22;52989;48.796;9.806;2023-06-22T12:40:08;31.80;76.00
66184;DHT22;52989;48.796;9.806;2023-06-22T12:42:33;31.80;76.50
66184;DHT22;52989;48.796;9.806;2023-06-22T12:44:59;31.50;77.80
66184;DHT22;52989;48.796;9.806;2023-06-22T12:47:24;31.70;75.60
66184;DHT22;52989;48.796;9.806;2023-06-22T12:49:50;31.90;74.10
66184;DHT22;52989;48.796;9.806;2023-06-22T12:52:15;31.90;77.00
66184;DHT22;52989;48.796;9.806;2023-06-22T12:54:41;31.60;78.20
66184;DHT22;52989;48.796;9.806;2023-06-22T12:57:06;31.50;77.50
66184;DHT22;52989;48.796;9.806;2023-06-22T12:59:32;31.20;78.40
66184;DHT22;52989;48.796;9.806;2023-06-22T13:01:57;30.70;82.20
66184;DHT22;52989;48.796;9.806;2023-06-22T13:04:24;30.40;80.40
66184;DHT22;52989;48.796;9.806;2023-06-22T13:06:49;30.50;80.10
66184;DHT22;52989;48.796;9.806;2023-06-22T13:09:15;30.60;78.30
66184;DHT22;52989;48.796;9.806;2023-06-22T13:11:41;30.50;80.00
66184;DHT22;52989;48.796;9.806;2023-06-22T13:14:07;30.30;80.50
66184;DHT22;52989;48.796;9.806;2023-06-22T13:16:32;30.30;79.00
66184;DHT22;52989;48.796;9.806;2023-06-22T13:18:58;30.20;79.80
66184;DHT22;52989;48.796;9.806;2023-06-22T13:21:23;30.10;79.40
66184;DHT22;52989;48.796;9.806;2023-06-22T13:23:52;30.10;80.30
66184;DHT22;52989;48.796;9.806;2023-06-22T13:26:17;30.00;79.90
66184;DHT22;52989;48.796;9.806;2023-06-22T13:28:43;30.10;79.10
66184;DHT22;52989;48.796;9.806;2023-06-22T13:31:08;30.30;78.40
66184;DHT22;52989;48.796;9.806;2023-06-22T13:33:33;30.40;79.60
66184;DHT22;52989;48.796;9.806;2023-06-22T13:35:59;30.40;79.30
66184;DHT22;52989;48.796;9.806;2023-06-22T13:38:28;30.30;80.60
66184;DHT22;52989;48.796;9.806;2023-06-22T13:40:54;30.20;80.80
66184;DHT22;52989;48.796;9.806;2023-06-22T13:43:22;30.40;79.50
66184;DHT22;52989;48.796;9.806;2023-06-22T13:45:48;30.60;78.30
66184;DHT22;52989;48.796;9.806;2023-06-22T13:48:14;30.80;78.40
66184;DHT22;52989;48.796;9.806;2023-06-22T13:50:40;30.90;77.00
66184;DHT22;52989;48.796;9.806;2023-06-22T13:53:05;30.90;77.90
66184;DHT22;52989;48.796;9.806;2023-06-22T13:55:31;31.10;74.70
66184;DHT22;52989;48.796;9.806;2023-06-22T13:57:56;31.50;73.00
66184;DHT22;52989;48.796;9.806;2023-06-22T14:00:21;31.20;73.00
66184;DHT22;52989;48.796;9.806;2023-06-22T14:02:47;31.30;72.60
66184;DHT22;52989;48.796;9.806;2023-06-22T14:05:13;31.50;75.60
66184;DHT22;52989;48.796;9.806;2023-06-22T14:07:38;31.80;74.60
66184;DHT22;52989;48.796;9.806;2023-06-22T14:10:04;32.10;71.20
66184;DHT22;52989;48.796;9.806;2023-06-22T14:12:29;32.10;70.70
66184;DHT22;52989;48.796;9.806;2023-06-22T14:14:55;32.20;68.00
66184;DHT22;52989;48.796;9.806;2023-06-22T14:17:20;32.20;69.30
66184;DHT22;52989;48.796;9.806;2023-06-22T14:19:50;32.20;68.10
66184;DHT22;52989;48.796;9.806;2023-06-22T14:22:21;32.00;71.20
66184;DHT22;52989;48.796;9.806;2023-06-22T14:24:47;31.50;71.30
66184;DHT22;52989;48.796;9.806;2023-06-22T14:27:12;31.30;72.70
66184;DHT22;52989;48.796;9.806;2023-06-22T14:29:38;31.50;69.90
66184;DHT22;52989;48.796;9.806;2023-06-22T14:32:03;31.60;64.90
66184;DHT22;52989;48.796;9.806;2023-06-22T14:34:31;31.90;64.90
66184;DHT22;52989;48.796;9.806;2023-06-22T14:36:57;32.10;66.70
66184;DHT22;52989;48.796;9.806;2023-06-22T14:39:22;32.30;65.40
66184;DHT22;52989;48.796;9.806;2023-06-22T14:41:47;32.70;64.30
66184;DHT22;52989;48.796;9.806;2023-06-22T14:44:13;32.90;65.50
66184;DHT22;52989;48.796;9.806;2023-06-22T14:46:40;32.50;64.40
66184;DHT22;52989;48.796;9.806;2023-06-22T14:49:05;32.20;64.40
66184;DHT22;52989;48.796;9.806;2023-06-22T14:51:31;32.00;64.30
66184;DHT22;52989;48.796;9.806;2023-06-22T14:53:56;31.80;66.80
66184;DHT22;52989;48.796;9.806;2023-06-22T14:56:22;31.80;64.40
66184;DHT22;52989;48.796;9.806;2023-06-22T14:58:47;32.10;63.00
66184;DHT22;52989;48.796;9.806;2023-06-22T15:01:16;32.40;63.50
66184;DHT22;52989;48.796;9.806;2023-06-22T15:03:41;32.60;64.00
66184;DHT22;52989;48.796;9.806;2023-06-22T15:06:07;32.70;65.80
66184;DHT22;52989;48.796;9.806;2023-06-22T15:08:33;32.50;62.90
66184;DHT22;52989;48.796;9.806;2023-06-22T15:10:59;32.60;62.30
66184;DHT22;52989;48.796;9.806;2023-06-22T15:13:26;32.60;62.80
66184;DHT22;52989;48.796;9.806;2023-06-22T15:15:52;32.60;62.30
66184;DHT22;52989;48.796;9.806;2023-06-22T15:18:18;32.70;63.90
66184;DHT22;52989;48.796;9.806;2023-06-22T15:20:43;32.90;65.40
66184;DHT22;52989;48.796;9.806;2023-06-22T15:23:11;32.50;64.30
66184;DHT22;52989;48.796;9.806;2023-06-22T15:25:36;32.20;63.30
66184;DHT22;52989;48.796;9.806;2023-06-22T15:28:02;31.90;63.40